Salt Lake City, Utah
Traffic Map
Current Weather Conditions
Salt Lake City, Utah
Clear
Clear
60°
Feels Like: 60°
Wind Chill: 60° Ceiling: Unl
Heat Index: 60° Visibility: 10mi
Dew Point: 34° Wind: 5mph
Humidity: 38% Direction: 160° (SSE)
Pressure: 30.19in Gusts: 0mph
Raw Report DataKSLC 261054Z 16004KT 10SM CLR 16/01 A3019 RMK AO2 SLP177 T01560011
Traffic Incident Summary
Active as of:
Severity:
Category:
InformationThere was an issue retrieving the traffic information for this location. Please try a different location or try again shortly.
Advertisements
Track Severe Weather on mobile